sensor_id;sensor_type;location;lat;lon;timestamp;pressure;altitude;pressure_sealevel;temperature
65180;BMP280;51849;47.476;8.084;2022-07-17T00:00:44;97250.75;;;17.93
65180;BMP280;51849;47.476;8.084;2022-07-17T00:03:15;97251.22;;;17.92
65180;BMP280;51849;47.476;8.084;2022-07-17T00:05:42;97245.78;;;18.03
65180;BMP280;51849;47.476;8.084;2022-07-17T00:08:08;97251.34;;;17.99
65180;BMP280;51849;47.476;8.084;2022-07-17T00:10:36;97248.56;;;17.92
65180;BMP280;51849;47.476;8.084;2022-07-17T00:13:02;97256.84;;;17.83
65180;BMP280;51849;47.476;8.084;2022-07-17T00:15:28;97254.94;;;17.83
65180;BMP280;51849;47.476;8.084;2022-07-17T00:17:54;97253.28;;;17.80
65180;BMP280;51849;47.476;8.084;2022-07-17T00:20:20;97248.53;;;17.60
65180;BMP280;51849;47.476;8.084;2022-07-17T00:22:46;97247.84;;;17.54
65180;BMP280;51849;47.476;8.084;2022-07-17T00:25:12;97243.78;;;17.53
65180;BMP280;51849;47.476;8.084;2022-07-17T00:27:39;97248.91;;;17.46
65180;BMP280;51849;47.476;8.084;2022-07-17T00:30:05;97243.75;;;17.35
65180;BMP280;51849;47.476;8.084;2022-07-17T00:32:33;97244.97;;;17.34
65180;BMP280;51849;47.476;8.084;2022-07-17T00:34:58;97247.13;;;17.35
65180;BMP280;51849;47.476;8.084;2022-07-17T00:37:24;97247.41;;;17.32
65180;BMP280;51849;47.476;8.084;2022-07-17T00:39:50;97245.03;;;17.28
65180;BMP280;51849;47.476;8.084;2022-07-17T00:42:18;97246.06;;;17.44
65180;BMP280;51849;47.476;8.084;2022-07-17T00:44:44;97248.03;;;17.38
65180;BMP280;51849;47.476;8.084;2022-07-17T00:49:38;97252.00;;;17.26
65180;BMP280;51849;47.476;8.084;2022-07-17T00:52:03;97250.59;;;17.25
65180;BMP280;51849;47.476;8.084;2022-07-17T00:54:30;97245.53;;;17.27
65180;BMP280;51849;47.476;8.084;2022-07-17T00:56:58;97247.53;;;17.21
65180;BMP280;51849;47.476;8.084;2022-07-17T00:59:26;97246.75;;;17.26
65180;BMP280;51849;47.476;8.084;2022-07-17T01:01:52;97244.16;;;17.20
65180;BMP280;51849;47.476;8.084;2022-07-17T01:04:18;97242.25;;;17.21
65180;BMP280;51849;47.476;8.084;2022-07-17T01:06:44;97241.81;;;17.17
65180;BMP280;51849;47.476;8.084;2022-07-17T01:09:10;97248.44;;;17.23
65180;BMP280;51849;47.476;8.084;2022-07-17T01:11:39;97250.94;;;17.16
65180;BMP280;51849;47.476;8.084;2022-07-17T01:14:05;97256.41;;;17.18
65180;BMP280;51849;47.476;8.084;2022-07-17T01:16:32;97252.22;;;17.04
65180;BMP280;51849;47.476;8.084;2022-07-17T01:18:58;97251.84;;;16.94
65180;BMP280;51849;47.476;8.084;2022-07-17T01:21:24;97245.66;;;16.92
65180;BMP280;51849;47.476;8.084;2022-07-17T01:23:50;97244.94;;;16.91
65180;BMP280;51849;47.476;8.084;2022-07-17T01:26:16;97242.16;;;17.02
65180;BMP280;51849;47.476;8.084;2022-07-17T01:28:41;97238.28;;;16.85
65180;BMP280;51849;47.476;8.084;2022-07-17T01:31:07;97238.50;;;16.87
65180;BMP280;51849;47.476;8.084;2022-07-17T01:33:33;97242.63;;;16.82
65180;BMP280;51849;47.476;8.084;2022-07-17T01:35:59;97243.94;;;16.65
65180;BMP280;51849;47.476;8.084;2022-07-17T01:38:24;97247.03;;;16.69
65180;BMP280;51849;47.476;8.084;2022-07-17T01:40:50;97235.72;;;16.74
65180;BMP280;51849;47.476;8.084;2022-07-17T01:43:17;97244.63;;;16.71
65180;BMP280;51849;47.476;8.084;2022-07-17T01:45:42;97233.72;;;16.55
65180;BMP280;51849;47.476;8.084;2022-07-17T01:48:08;97234.13;;;16.65
65180;BMP280;51849;47.476;8.084;2022-07-17T01:50:34;97237.53;;;16.60
65180;BMP280;51849;47.476;8.084;2022-07-17T01:53:00;97237.59;;;16.49
65180;BMP280;51849;47.476;8.084;2022-07-17T01:55:28;97232.34;;;16.49
65180;BMP280;51849;47.476;8.084;2022-07-17T01:57:54;97230.75;;;16.40
65180;BMP280;51849;47.476;8.084;2022-07-17T02:00:19;97231.19;;;16.39
65180;BMP280;51849;47.476;8.084;2022-07-17T02:02:48;97238.59;;;16.46
65180;BMP280;51849;47.476;8.084;2022-07-17T02:05:13;97235.22;;;16.51
65180;BMP280;51849;47.476;8.084;2022-07-17T02:07:39;97237.63;;;16.43
65180;BMP280;51849;47.476;8.084;2022-07-17T02:10:09;97230.19;;;16.47
65180;BMP280;51849;47.476;8.084;2022-07-17T02:12:35;97228.84;;;16.35
65180;BMP280;51849;47.476;8.084;2022-07-17T02:15:04;97236.81;;;16.24
65180;BMP280;51849;47.476;8.084;2022-07-17T02:17:30;97234.84;;;16.36
65180;BMP280;51849;47.476;8.084;2022-07-17T02:19:55;97222.59;;;16.38
65180;BMP280;51849;47.476;8.084;2022-07-17T02:22:21;97226.97;;;16.30
65180;BMP280;51849;47.476;8.084;2022-07-17T02:24:47;97223.84;;;16.32
65180;BMP280;51849;47.476;8.084;2022-07-17T02:27:13;97215.59;;;16.11
65180;BMP280;51849;47.476;8.084;2022-07-17T02:29:41;97218.19;;;16.17
65180;BMP280;51849;47.476;8.084;2022-07-17T02:32:06;97212.72;;;16.15
65180;BMP280;51849;47.476;8.084;2022-07-17T02:34:32;97218.19;;;16.17
65180;BMP280;51849;47.476;8.084;2022-07-17T02:36:58;97216.72;;;16.21
65180;BMP280;51849;47.476;8.084;2022-07-17T02:39:23;97217.72;;;16.18
65180;BMP280;51849;47.476;8.084;2022-07-17T02:41:49;97221.78;;;16.19
65180;BMP280;51849;47.476;8.084;2022-07-17T02:44:17;97215.84;;;16.13
65180;BMP280;51849;47.476;8.084;2022-07-17T02:46:43;97213.47;;;16.10
65180;BMP280;51849;47.476;8.084;2022-07-17T02:49:11;97216.28;;;16.17
65180;BMP280;51849;47.476;8.084;2022-07-17T02:51:39;97218.53;;;16.02
65180;BMP280;51849;47.476;8.084;2022-07-17T02:54:04;97218.13;;;15.87
65180;BMP280;51849;47.476;8.084;2022-07-17T02:56:33;97207.78;;;15.95
65180;BMP280;51849;47.476;8.084;2022-07-17T02:58:58;97216.44;;;15.90
65180;BMP280;51849;47.476;8.084;2022-07-17T03:01:24;97212.88;;;15.87
65180;BMP280;51849;47.476;8.084;2022-07-17T03:03:50;97212.63;;;15.85
65180;BMP280;51849;47.476;8.084;2022-07-17T03:06:15;97209.03;;;15.88
65180;BMP280;51849;47.476;8.084;2022-07-17T03:08:41;97210.47;;;15.89
65180;BMP280;51849;47.476;8.084;2022-07-17T03:11:07;97205.75;;;15.77
65180;BMP280;51849;47.476;8.084;2022-07-17T03:13:32;97210.34;;;15.65
65180;BMP280;51849;47.476;8.084;2022-07-17T03:15:58;97214.16;;;15.64
65180;BMP280;51849;47.476;8.084;2022-07-17T03:18:24;97215.88;;;15.56
65180;BMP280;51849;47.476;8.084;2022-07-17T03:20:49;97215.19;;;15.50
65180;BMP280;51849;47.476;8.084;2022-07-17T03:23:15;97218.53;;;15.56
65180;BMP280;51849;47.476;8.084;2022-07-17T03:25:41;97218.25;;;15.65
65180;BMP280;51849;47.476;8.084;2022-07-17T03:28:06;97217.03;;;15.66
65180;BMP280;51849;47.476;8.084;2022-07-17T03:30:32;97219.47;;;15.59
65180;BMP280;51849;47.476;8.084;2022-07-17T03:32:58;97217.78;;;15.61
65180;BMP280;51849;47.476;8.084;2022-07-17T03:35:23;97221.09;;;15.67
65180;BMP280;51849;47.476;8.084;2022-07-17T03:37:49;97210.31;;;15.71
65180;BMP280;51849;47.476;8.084;2022-07-17T03:40:15;97214.69;;;15.46
65180;BMP280;51849;47.476;8.084;2022-07-17T03:42:41;97218.31;;;15.38
65180;BMP280;51849;47.476;8.084;2022-07-17T03:45:06;97218.31;;;15.43
65180;BMP280;51849;47.476;8.084;2022-07-17T03:47:33;97223.56;;;15.43
65180;BMP280;51849;47.476;8.084;2022-07-17T03:49:59;97215.28;;;15.28
65180;BMP280;51849;47.476;8.084;2022-07-17T03:52:24;97215.72;;;15.27
65180;BMP280;51849;47.476;8.084;2022-07-17T03:54:50;97209.75;;;15.32
65180;BMP280;51849;47.476;8.084;2022-07-17T03:57:16;97215.94;;;15.40
65180;BMP280;51849;47.476;8.084;2022-07-17T03:59:41;97213.56;;;15.36
65180;BMP280;51849;47.476;8.084;2022-07-17T04:02:07;97212.09;;;15.35
65180;BMP280;51849;47.476;8.084;2022-07-17T04:04:33;97219.06;;;15.33
65180;BMP280;51849;47.476;8.084;2022-07-17T04:06:58;97218.81;;;15.36
65180;BMP280;51849;47.476;8.084;2022-07-17T04:09:24;97222.88;;;15.32
65180;BMP280;51849;47.476;8.084;2022-07-17T04:11:52;97220.97;;;15.32
65180;BMP280;51849;47.476;8.084;2022-07-17T04:14:18;97223.81;;;15.40
65180;BMP280;51849;47.476;8.084;2022-07-17T04:16:50;97221.91;;;15.46
65180;BMP280;51849;47.476;8.084;2022-07-17T04:19:16;97224.31;;;15.44
65180;BMP280;51849;47.476;8.084;2022-07-17T04:21:42;97216.41;;;15.38
65180;BMP280;51849;47.476;8.084;2022-07-17T04:24:08;97214.06;;;15.35
65180;BMP280;51849;47.476;8.084;2022-07-17T04:26:33;97225.25;;;15.35
65180;BMP280;51849;47.476;8.084;2022-07-17T04:28:59;97224.53;;;15.40
65180;BMP280;51849;47.476;8.084;2022-07-17T04:31:27;97225.72;;;15.45
65180;BMP280;51849;47.476;8.084;2022-07-17T04:33:55;97230.97;;;15.50
65180;BMP280;51849;47.476;8.084;2022-07-17T04:36:21;97234.75;;;15.60
65180;BMP280;51849;47.476;8.084;2022-07-17T04:38:46;97234.47;;;15.69
65180;BMP280;51849;47.476;8.084;2022-07-17T04:41:12;97229.00;;;15.67
65180;BMP280;51849;47.476;8.084;2022-07-17T04:43:38;97228.00;;;15.70
65180;BMP280;51849;47.476;8.084;2022-07-17T04:46:03;97231.59;;;15.78
65180;BMP280;51849;47.476;8.084;2022-07-17T04:48:29;97231.25;;;15.98
65180;BMP280;51849;47.476;8.084;2022-07-17T04:50:55;97224.63;;;16.21
65180;BMP280;51849;47.476;8.084;2022-07-17T04:53:20;97225.34;;;16.22
65180;BMP280;51849;47.476;8.084;2022-07-17T04:55:46;97224.72;;;16.45
65180;BMP280;51849;47.476;8.084;2022-07-17T04:58:12;97228.16;;;16.65
65180;BMP280;51849;47.476;8.084;2022-07-17T05:00:38;97227.00;;;16.84
65180;BMP280;51849;47.476;8.084;2022-07-17T05:03:03;97226.28;;;17.08
65180;BMP280;51849;47.476;8.084;2022-07-17T05:05:29;97224.13;;;17.12
65180;BMP280;51849;47.476;8.084;2022-07-17T05:07:55;97222.25;;;17.31
65180;BMP280;51849;47.476;8.084;2022-07-17T05:10:20;97223.69;;;17.69
65180;BMP280;51849;47.476;8.084;2022-07-17T05:12:46;97223.03;;;18.00
65180;BMP280;51849;47.476;8.084;2022-07-17T05:15:12;97225.94;;;18.15
65180;BMP280;51849;47.476;8.084;2022-07-17T05:17:38;97228.84;;;18.43
65180;BMP280;51849;47.476;8.084;2022-07-17T05:20:05;97238.38;;;18.65
65180;BMP280;51849;47.476;8.084;2022-07-17T05:22:31;97233.88;;;18.73
65180;BMP280;51849;47.476;8.084;2022-07-17T05:24:56;97228.50;;;18.78
65180;BMP280;51849;47.476;8.084;2022-07-17T05:27:22;97233.31;;;19.06
65180;BMP280;51849;47.476;8.084;2022-07-17T05:29:50;97232.50;;;19.24
65180;BMP280;51849;47.476;8.084;2022-07-17T05:32:15;97228.59;;;19.51
65180;BMP280;51849;47.476;8.084;2022-07-17T05:34:41;97241.63;;;19.69
65180;BMP280;51849;47.476;8.084;2022-07-17T05:37:07;97238.03;;;19.93
65180;BMP280;51849;47.476;8.084;2022-07-17T05:39:32;97241.25;;;20.19
65180;BMP280;51849;47.476;8.084;2022-07-17T05:41:58;97246.19;;;20.36
65180;BMP280;51849;47.476;8.084;2022-07-17T05:44:24;97248.28;;;20.58
65180;BMP280;51849;47.476;8.084;2022-07-17T05:46:49;97248.44;;;20.81
65180;BMP280;51849;47.476;8.084;2022-07-17T05:49:15;97250.63;;;20.97
65180;BMP280;51849;47.476;8.084;2022-07-17T05:51:41;97250.75;;;21.20
65180;BMP280;51849;47.476;8.084;2022-07-17T05:54:06;97245.91;;;21.54
65180;BMP280;51849;47.476;8.084;2022-07-17T05:56:32;97242.44;;;21.74
65180;BMP280;51849;47.476;8.084;2022-07-17T05:58:58;97246.16;;;21.86
65180;BMP280;51849;47.476;8.084;2022-07-17T06:01:26;97249.56;;;22.09
65180;BMP280;51849;47.476;8.084;2022-07-17T06:03:52;97251.50;;;22.31
65180;BMP280;51849;47.476;8.084;2022-07-17T06:06:17;97253.09;;;22.41
65180;BMP280;51849;47.476;8.084;2022-07-17T06:08:43;97253.81;;;22.49
65180;BMP280;51849;47.476;8.084;2022-07-17T06:11:09;97248.44;;;22.64
65180;BMP280;51849;47.476;8.084;2022-07-17T06:13:34;97246.47;;;22.72
65180;BMP280;51849;47.476;8.084;2022-07-17T06:16:00;97249.13;;;22.80
65180;BMP280;51849;47.476;8.084;2022-07-17T06:18:26;97253.63;;;23.09
65180;BMP280;51849;47.476;8.084;2022-07-17T06:20:52;97248.56;;;23.36
65180;BMP280;51849;47.476;8.084;2022-07-17T06:23:17;97250.72;;;23.37
65180;BMP280;51849;47.476;8.084;2022-07-17T06:25:43;97250.47;;;23.11
65180;BMP280;51849;47.476;8.084;2022-07-17T06:28:09;97256.88;;;23.08
65180;BMP280;51849;47.476;8.084;2022-07-17T06:30:34;97252.41;;;23.50
65180;BMP280;51849;47.476;8.084;2022-07-17T06:33:03;97254.28;;;23.32
65180;BMP280;51849;47.476;8.084;2022-07-17T06:35:28;97250.97;;;23.49
65180;BMP280;51849;47.476;8.084;2022-07-17T06:37:57;97246.13;;;23.62
65180;BMP280;51849;47.476;8.084;2022-07-17T06:40:22;97253.34;;;23.69
65180;BMP280;51849;47.476;8.084;2022-07-17T06:42:48;97258.75;;;23.62
65180;BMP280;51849;47.476;8.084;2022-07-17T06:45:14;97256.75;;;23.95
65180;BMP280;51849;47.476;8.084;2022-07-17T06:47:42;97256.44;;;23.58
65180;BMP280;51849;47.476;8.084;2022-07-17T06:50:07;97253.53;;;24.13
65180;BMP280;51849;47.476;8.084;2022-07-17T06:52:34;97252.94;;;24.22
65180;BMP280;51849;47.476;8.084;2022-07-17T06:54:59;97253.41;;;24.11
65180;BMP280;51849;47.476;8.084;2022-07-17T06:57:25;97252.94;;;24.05
65180;BMP280;51849;47.476;8.084;2022-07-17T06:59:53;97254.41;;;24.16
65180;BMP280;51849;47.476;8.084;2022-07-17T07:02:19;97248.47;;;24.08
65180;BMP280;51849;47.476;8.084;2022-07-17T07:04:44;97252.84;;;24.13
65180;BMP280;51849;47.476;8.084;2022-07-17T07:07:11;97250.69;;;24.36
65180;BMP280;51849;47.476;8.084;2022-07-17T07:09:36;97247.66;;;24.39
65180;BMP280;51849;47.476;8.084;2022-07-17T07:12:02;97255.72;;;24.32
65180;BMP280;51849;47.476;8.084;2022-07-17T07:14:30;97251.19;;;24.42
65180;BMP280;51849;47.476;8.084;2022-07-17T07:16:56;97257.34;;;24.27
65180;BMP280;51849;47.476;8.084;2022-07-17T07:19:24;97257.97;;;24.18
65180;BMP280;51849;47.476;8.084;2022-07-17T07:21:52;97249.44;;;24.54
65180;BMP280;51849;47.476;8.084;2022-07-17T07:24:18;97260.69;;;24.52
65180;BMP280;51849;47.476;8.084;2022-07-17T07:26:46;97257.88;;;24.67
65180;BMP280;51849;47.476;8.084;2022-07-17T07:29:11;97259.09;;;24.15
65180;BMP280;51849;47.476;8.084;2022-07-17T07:31:37;97262.78;;;24.54
65180;BMP280;51849;47.476;8.084;2022-07-17T07:34:04;97253.31;;;24.43
65180;BMP280;51849;47.476;8.084;2022-07-17T07:36:33;97251.41;;;24.53
65180;BMP280;51849;47.476;8.084;2022-07-17T07:38:58;97251.56;;;24.72
65180;BMP280;51849;47.476;8.084;2022-07-17T07:41:24;97254.25;;;24.72
65180;BMP280;51849;47.476;8.084;2022-07-17T07:43:50;97249.22;;;24.76
65180;BMP280;51849;47.476;8.084;2022-07-17T07:46:16;97244.03;;;24.78
65180;BMP280;51849;47.476;8.084;2022-07-17T07:48:41;97235.47;;;24.80
65180;BMP280;51849;47.476;8.084;2022-07-17T07:51:10;97243.81;;;25.10
65180;BMP280;51849;47.476;8.084;2022-07-17T07:53:36;97246.59;;;25.03
65180;BMP280;51849;47.476;8.084;2022-07-17T07:56:05;97248.81;;;25.50
65180;BMP280;51849;47.476;8.084;2022-07-17T07:58:31;97246.78;;;25.31
65180;BMP280;51849;47.476;8.084;2022-07-17T08:00:56;97252.31;;;25.43
65180;BMP280;51849;47.476;8.084;2022-07-17T08:03:24;97257.16;;;25.54
65180;BMP280;51849;47.476;8.084;2022-07-17T08:05:50;97261.34;;;25.57
65180;BMP280;51849;47.476;8.084;2022-07-17T08:08:16;97257.63;;;25.69
65180;BMP280;51849;47.476;8.084;2022-07-17T08:10:42;97260.31;;;25.79
65180;BMP280;51849;47.476;8.084;2022-07-17T08:13:10;97262.28;;;25.78
65180;BMP280;51849;47.476;8.084;2022-07-17T08:15:40;97258.63;;;25.38
65180;BMP280;51849;47.476;8.084;2022-07-17T08:18:06;97263.81;;;25.81
65180;BMP280;51849;47.476;8.084;2022-07-17T08:20:32;97266.50;;;25.81
65180;BMP280;51849;47.476;8.084;2022-07-17T08:22:57;97260.75;;;25.85
65180;BMP280;51849;47.476;8.084;2022-07-17T08:25:23;97270.53;;;25.99
65180;BMP280;51849;47.476;8.084;2022-07-17T08:27:49;97265.31;;;26.11
65180;BMP280;51849;47.476;8.084;2022-07-17T08:30:17;97264.38;;;26.16
65180;BMP280;51849;47.476;8.084;2022-07-17T08:32:45;97271.28;;;26.28
65180;BMP280;51849;47.476;8.084;2022-07-17T08:35:11;97270.16;;;26.31
65180;BMP280;51849;47.476;8.084;2022-07-17T08:37:51;97272.84;;;26.41
65180;BMP280;51849;47.476;8.084;2022-07-17T08:40:20;97265.38;;;26.39
65180;BMP280;51849;47.476;8.084;2022-07-17T08:42:46;97271.13;;;26.45
65180;BMP280;51849;47.476;8.084;2022-07-17T08:45:12;97263.56;;;26.51
65180;BMP280;51849;47.476;8.084;2022-07-17T08:47:38;97271.28;;;26.28
65180;BMP280;51849;47.476;8.084;2022-07-17T08:50:04;97270.16;;;26.31
65180;BMP280;51849;47.476;8.084;2022-07-17T08:52:32;97265.94;;;26.28
65180;BMP280;51849;47.476;8.084;2022-07-17T08:54:58;97275.66;;;26.52
65180;BMP280;51849;47.476;8.084;2022-07-17T08:57:24;97270.88;;;26.79
65180;BMP280;51849;47.476;8.084;2022-07-17T08:59:49;97280.19;;;26.69
65180;BMP280;51849;47.476;8.084;2022-07-17T09:02:15;97271.72;;;26.82
65180;BMP280;51849;47.476;8.084;2022-07-17T09:04:41;97276.34;;;26.81
65180;BMP280;51849;47.476;8.084;2022-07-17T09:07:06;97273.81;;;26.83
65180;BMP280;51849;47.476;8.084;2022-07-17T09:09:33;97276.91;;;26.99
65180;BMP280;51849;47.476;8.084;2022-07-17T09:12:03;97268.84;;;27.08
65180;BMP280;51849;47.476;8.084;2022-07-17T09:14:39;97270.25;;;27.09
65180;BMP280;51849;47.476;8.084;2022-07-17T09:17:08;97279.38;;;27.25
65180;BMP280;51849;47.476;8.084;2022-07-17T09:19:41;97266.47;;;27.43
65180;BMP280;51849;47.476;8.084;2022-07-17T09:32:34;97262.56;;;27.95
65180;BMP280;51849;47.476;8.084;2022-07-17T09:35:01;97269.78;;;28.14
65180;BMP280;51849;47.476;8.084;2022-07-17T09:37:29;97280.91;;;27.99
65180;BMP280;51849;47.476;8.084;2022-07-17T09:39:57;97273.97;;;28.05
65180;BMP280;51849;47.476;8.084;2022-07-17T09:42:24;97271.38;;;28.07
65180;BMP280;51849;47.476;8.084;2022-07-17T09:45:00;97279.81;;;28.13
65180;BMP280;51849;47.476;8.084;2022-07-17T09:47:35;97276.25;;;28.20
65180;BMP280;51849;47.476;8.084;2022-07-17T09:50:02;97276.19;;;27.88
65180;BMP280;51849;47.476;8.084;2022-07-17T09:52:31;97283.31;;;28.16
65180;BMP280;51849;47.476;8.084;2022-07-17T09:55:01;97280.97;;;28.10
65180;BMP280;51849;47.476;8.084;2022-07-17T09:57:29;97278.78;;;28.18
65180;BMP280;51849;47.476;8.084;2022-07-17T09:59:57;97278.13;;;28.50
65180;BMP280;51849;47.476;8.084;2022-07-17T10:02:26;97290.16;;;28.49
65180;BMP280;51849;47.476;8.084;2022-07-17T10:04:54;97285.50;;;28.29
65180;BMP280;51849;47.476;8.084;2022-07-17T10:07:20;97279.06;;;28.43
65180;BMP280;51849;47.476;8.084;2022-07-17T10:09:46;97279.53;;;28.51
65180;BMP280;51849;47.476;8.084;2022-07-17T10:12:13;97288.03;;;28.80
65180;BMP280;51849;47.476;8.084;2022-07-17T10:14:40;97272.41;;;28.88
65180;BMP280;51849;47.476;8.084;2022-07-17T10:17:11;97272.56;;;29.13
65180;BMP280;51849;47.476;8.084;2022-07-17T10:19:53;97270.47;;;29.23
65180;BMP280;51849;47.476;8.084;2022-07-17T10:22:19;97266.41;;;29.22
65180;BMP280;51849;47.476;8.084;2022-07-17T10:24:55;97270.84;;;29.29
65180;BMP280;51849;47.476;8.084;2022-07-17T10:27:26;97258.41;;;29.47
65180;BMP280;51849;47.476;8.084;2022-07-17T10:30:11;97268.72;;;29.39
65180;BMP280;51849;47.476;8.084;2022-07-17T10:32:39;97274.72;;;29.38
65180;BMP280;51849;47.476;8.084;2022-07-17T10:35:07;97285.34;;;29.36
65180;BMP280;51849;47.476;8.084;2022-07-17T10:43:01;97284.78;;;29.60
65180;BMP280;51849;47.476;8.084;2022-07-17T10:45:32;97284.38;;;29.77
65180;BMP280;51849;47.476;8.084;2022-07-17T10:48:17;97284.41;;;29.66
65180;BMP280;51849;47.476;8.084;2022-07-17T10:53:15;97278.50;;;29.92
65180;BMP280;51849;47.476;8.084;2022-07-17T10:55:45;97267.28;;;29.84
65180;BMP280;51849;47.476;8.084;2022-07-17T11:01:06;97271.63;;;29.78
65180;BMP280;51849;47.476;8.084;2022-07-17T11:03:49;97270.53;;;29.94
65180;BMP280;51849;47.476;8.084;2022-07-17T11:06:25;97269.88;;;29.82
65180;BMP280;51849;47.476;8.084;2022-07-17T11:08:57;97269.16;;;29.93
65180;BMP280;51849;47.476;8.084;2022-07-17T11:11:44;97264.75;;;30.11
65180;BMP280;51849;47.476;8.084;2022-07-17T11:14:17;97267.69;;;30.15
65180;BMP280;51849;47.476;8.084;2022-07-17T11:17:06;97269.00;;;30.39
65180;BMP280;51849;47.476;8.084;2022-07-17T11:19:38;97269.00;;;30.39
65180;BMP280;51849;47.476;8.084;2022-07-17T11:22:06;97265.38;;;30.35
65180;BMP280;51849;47.476;8.084;2022-07-17T11:24:39;97263.41;;;30.35
65180;BMP280;51849;47.476;8.084;2022-07-17T11:27:06;97252.63;;;29.99
65180;BMP280;51849;47.476;8.084;2022-07-17T11:29:38;97250.56;;;30.22
65180;BMP280;51849;47.476;8.084;2022-07-17T11:32:04;97250.56;;;30.22
65180;BMP280;51849;47.476;8.084;2022-07-17T11:34:30;97250.34;;;30.43
65180;BMP280;51849;47.476;8.084;2022-07-17T11:37:04;97245.34;;;30.01
65180;BMP280;51849;47.476;8.084;2022-07-17T11:39:44;97237.03;;;30.59
65180;BMP280;51849;47.476;8.084;2022-07-17T11:42:22;97237.78;;;30.86
65180;BMP280;51849;47.476;8.084;2022-07-17T11:44:58;97237.78;;;30.86
65180;BMP280;51849;47.476;8.084;2022-07-17T11:47:26;97250.25;;;30.80
65180;BMP280;51849;47.476;8.084;2022-07-17T11:50:07;97250.25;;;30.80
65180;BMP280;51849;47.476;8.084;2022-07-17T11:52:47;97246.38;;;30.83
65180;BMP280;51849;47.476;8.084;2022-07-17T11:55:16;97248.97;;;30.94
65180;BMP280;51849;47.476;8.084;2022-07-17T11:57:47;97245.75;;;30.84
65180;BMP280;51849;47.476;8.084;2022-07-17T12:00:26;97240.00;;;30.51
65180;BMP280;51849;47.476;8.084;2022-07-17T12:03:03;97240.00;;;30.51
65180;BMP280;51849;47.476;8.084;2022-07-17T12:05:31;97253.03;;;30.68
65180;BMP280;51849;47.476;8.084;2022-07-17T12:07:57;97244.50;;;30.85
65180;BMP280;51849;47.476;8.084;2022-07-17T12:10:25;97244.50;;;30.85
65180;BMP280;51849;47.476;8.084;2022-07-17T12:15:46;97234.69;;;30.53
65180;BMP280;51849;47.476;8.084;2022-07-17T12:18:25;97220.34;;;31.14
65180;BMP280;51849;47.476;8.084;2022-07-17T12:20:52;97215.25;;;31.34
65180;BMP280;51849;47.476;8.084;2022-07-17T12:23:32;97232.22;;;31.50
65180;BMP280;51849;47.476;8.084;2022-07-17T12:26:13;97242.69;;;31.44
65180;BMP280;51849;47.476;8.084;2022-07-17T12:28:40;97227.13;;;31.15
65180;BMP280;51849;47.476;8.084;2022-07-17T12:31:10;97235.66;;;31.23
65180;BMP280;51849;47.476;8.084;2022-07-17T12:33:40;97227.44;;;31.21
65180;BMP280;51849;47.476;8.084;2022-07-17T12:36:06;97227.22;;;31.31
65180;BMP280;51849;47.476;8.084;2022-07-17T12:38:34;97223.53;;;31.38
65180;BMP280;51849;47.476;8.084;2022-07-17T12:41:00;97226.09;;;31.63
65180;BMP280;51849;47.476;8.084;2022-07-17T12:43:26;97230.66;;;31.87
65180;BMP280;51849;47.476;8.084;2022-07-17T12:45:54;97224.44;;;31.42
65180;BMP280;51849;47.476;8.084;2022-07-17T12:48:20;97224.44;;;31.42
65180;BMP280;51849;47.476;8.084;2022-07-17T12:50:45;97209.47;;;31.26
65180;BMP280;51849;47.476;8.084;2022-07-17T12:53:11;97212.47;;;31.45
65180;BMP280;51849;47.476;8.084;2022-07-17T12:55:37;97209.84;;;31.47
65180;BMP280;51849;47.476;8.084;2022-07-17T12:58:04;97216.13;;;31.52
65180;BMP280;51849;47.476;8.084;2022-07-17T13:00:30;97218.31;;;31.55
65180;BMP280;51849;47.476;8.084;2022-07-17T13:02:56;97218.03;;;31.49
65180;BMP280;51849;47.476;8.084;2022-07-17T13:05:21;97212.63;;;31.49
65180;BMP280;51849;47.476;8.084;2022-07-17T13:07:48;97206.41;;;31.74
65180;BMP280;51849;47.476;8.084;2022-07-17T13:10:14;97206.41;;;31.74
65180;BMP280;51849;47.476;8.084;2022-07-17T13:12:40;97217.59;;;31.68
65180;BMP280;51849;47.476;8.084;2022-07-17T13:15:06;97209.94;;;31.92
65180;BMP280;51849;47.476;8.084;2022-07-17T13:17:32;97211.47;;;32.26
65180;BMP280;51849;47.476;8.084;2022-07-17T13:19:58;97205.66;;;32.31
65180;BMP280;51849;47.476;8.084;2022-07-17T13:22:23;97202.44;;;32.19
65180;BMP280;51849;47.476;8.084;2022-07-17T13:24:49;97209.50;;;31.97
65180;BMP280;51849;47.476;8.084;2022-07-17T13:27:15;97196.13;;;31.86
65180;BMP280;51849;47.476;8.084;2022-07-17T13:29:40;97196.13;;;31.86
65180;BMP280;51849;47.476;8.084;2022-07-17T13:32:08;97205.53;;;31.98
65180;BMP280;51849;47.476;8.084;2022-07-17T13:34:34;97193.25;;;31.39
65180;BMP280;51849;47.476;8.084;2022-07-17T13:37:00;97193.25;;;31.39
65180;BMP280;51849;47.476;8.084;2022-07-17T13:39:26;97189.56;;;31.75
65180;BMP280;51849;47.476;8.084;2022-07-17T13:41:54;97188.63;;;31.98
65180;BMP280;51849;47.476;8.084;2022-07-17T13:44:19;97183.06;;;32.09
65180;BMP280;51849;47.476;8.084;2022-07-17T13:46:45;97187.91;;;31.97
65180;BMP280;51849;47.476;8.084;2022-07-17T13:49:11;97195.50;;;31.72
65180;BMP280;51849;47.476;8.084;2022-07-17T13:51:39;97194.31;;;31.61
65180;BMP280;51849;47.476;8.084;2022-07-17T13:54:05;97183.47;;;31.75
65180;BMP280;51849;47.476;8.084;2022-07-17T13:56:33;97183.47;;;31.75
65180;BMP280;51849;47.476;8.084;2022-07-17T13:58:59;97182.97;;;32.07
65180;BMP280;51849;47.476;8.084;2022-07-17T14:01:25;97179.13;;;32.12
65180;BMP280;51849;47.476;8.084;2022-07-17T14:03:52;97177.94;;;32.15
65180;BMP280;51849;47.476;8.084;2022-07-17T14:06:17;97177.94;;;32.15
65180;BMP280;51849;47.476;8.084;2022-07-17T14:08:46;97181.72;;;32.55
65180;BMP280;51849;47.476;8.084;2022-07-17T14:11:12;97181.72;;;32.55
65180;BMP280;51849;47.476;8.084;2022-07-17T14:13:40;97178.66;;;32.31
65180;BMP280;51849;47.476;8.084;2022-07-17T14:16:06;97173.75;;;32.43
65180;BMP280;51849;47.476;8.084;2022-07-17T14:18:32;97176.22;;;32.37
65180;BMP280;51849;47.476;8.084;2022-07-17T14:20:58;97165.00;;;32.58
65180;BMP280;51849;47.476;8.084;2022-07-17T14:23:24;97168.97;;;32.26
65180;BMP280;51849;47.476;8.084;2022-07-17T14:25:50;97169.41;;;32.52
65180;BMP280;51849;47.476;8.084;2022-07-17T14:28:15;97171.44;;;32.51
65180;BMP280;51849;47.476;8.084;2022-07-17T14:30:41;97171.44;;;32.51
65180;BMP280;51849;47.476;8.084;2022-07-17T14:33:07;97165.75;;;32.61
65180;BMP280;51849;47.476;8.084;2022-07-17T14:35:33;97164.34;;;32.75